createdAt,value
2022-10-06T00:00:34.019Z,100633.42
2022-10-06T00:03:04.156Z,100637.34
2022-10-06T00:05:34.045Z,100636.02
2022-10-06T00:08:04.208Z,100638.92
2022-10-06T00:10:34.193Z,100642.30
2022-10-06T00:13:04.157Z,100638.97
2022-10-06T00:15:34.903Z,100638.97
2022-10-06T00:18:05.064Z,100636.96
2022-10-06T00:20:34.981Z,100637.50
2022-10-06T00:23:04.803Z,100637.13
2022-10-06T00:25:34.681Z,100635.06
2022-10-06T00:28:05.926Z,100635.91
2022-10-06T00:30:36.244Z,100637.81
2022-10-06T00:33:07.210Z,100637.13
2022-10-06T00:35:37.011Z,100636.52
2022-10-06T00:38:07.151Z,100631.12
2022-10-06T00:40:38.550Z,100631.56
2022-10-06T00:43:10.129Z,100634.47
2022-10-06T00:45:43.053Z,100635.80
2022-10-06T00:48:22.126Z,100636.74
2022-10-06T00:50:54.476Z,100638.97
2022-10-06T00:53:25.685Z,100641.29
2022-10-06T00:55:55.570Z,100643.72
2022-10-06T00:58:26.015Z,100643.09
2022-10-06T01:00:56.459Z,100646.56
2022-10-06T01:03:30.229Z,100635.67
2022-10-06T01:06:05.084Z,100640.67
2022-10-06T01:08:37.263Z,100637.91
2022-10-06T01:11:07.689Z,100650.90
2022-10-06T01:13:37.313Z,100640.34
2022-10-06T01:16:14.533Z,100644.36
2022-10-06T01:18:47.869Z,100647.11
2022-10-06T01:21:20.743Z,100644.33
2022-10-06T01:23:51.180Z,100650.87
2022-10-06T01:26:23.754Z,100651.17
2022-10-06T01:28:53.808Z,100651.16
2022-10-06T01:31:24.298Z,100650.78
2022-10-06T01:33:54.284Z,100654.52
2022-10-06T01:36:24.263Z,100651.52
2022-10-06T01:38:54.112Z,100648.77
2022-10-06T01:41:24.918Z,100648.88
2022-10-06T01:43:54.609Z,100654.27
2022-10-06T01:46:24.211Z,100649.09
2022-10-06T01:48:54.998Z,100654.70
2022-10-06T01:51:24.603Z,100657.06
2022-10-06T01:53:54.629Z,100663.76
2022-10-06T01:56:24.592Z,100663.76
2022-10-06T01:58:54.516Z,100656.94
2022-10-06T02:01:24.789Z,100665.83
2022-10-06T02:03:56.932Z,100667.22
2022-10-06T02:06:29.424Z,100666.47
2022-10-06T02:09:01.214Z,100666.29
2022-10-06T02:11:30.959Z,100672.39
2022-10-06T02:14:01.758Z,100670.84
2022-10-06T02:16:33.140Z,100676.83
2022-10-06T02:19:03.702Z,100675.23
2022-10-06T02:21:34.027Z,100677.56
2022-10-06T02:24:05.248Z,100680.52
2022-10-06T02:26:35.152Z,100675.70
2022-10-06T02:29:06.275Z,100683.11
2022-10-06T02:31:36.151Z,100681.30
2022-10-06T02:34:06.410Z,100686.33
2022-10-06T02:36:36.474Z,100693.41
2022-10-06T02:39:06.919Z,100693.08
2022-10-06T02:41:36.805Z,100695.68
2022-10-06T02:44:06.862Z,100691.66
2022-10-06T02:46:38.446Z,100699.98
2022-10-06T02:49:08.533Z,100697.45
2022-10-06T02:51:38.425Z,100695.36
2022-10-06T02:54:08.318Z,100701.30
2022-10-06T02:56:38.212Z,100701.87
2022-10-06T02:59:08.043Z,100702.25
2022-10-06T03:01:38.179Z,100709.71
2022-10-06T03:04:12.824Z,100709.71
2022-10-06T03:06:43.653Z,100715.14
2022-10-06T03:09:23.972Z,100718.33
2022-10-06T03:11:54.503Z,100714.73
2022-10-06T03:14:29.387Z,100720.47
2022-10-06T03:16:59.295Z,100722.44
2022-10-06T03:19:30.892Z,100728.13
2022-10-06T03:22:00.863Z,100728.13
2022-10-06T03:24:33.144Z,100734.23
2022-10-06T03:27:03.375Z,100729.92
2022-10-06T03:29:34.131Z,100733.70
2022-10-06T03:32:05.002Z,100736.75
2022-10-06T03:34:34.865Z,100734.73
2022-10-06T03:37:05.226Z,100734.28
2022-10-06T03:39:34.953Z,100745.60
2022-10-06T03:42:05.200Z,100738.81
2022-10-06T03:44:35.215Z,100740.28
2022-10-06T03:47:06.311Z,100740.92
2022-10-06T03:49:36.382Z,100747.81
2022-10-06T03:52:06.547Z,100750.69
2022-10-06T03:54:37.859Z,100749.06
2022-10-06T03:57:07.398Z,100753.67
2022-10-06T03:59:38.403Z,100751.65
2022-10-06T04:02:08.652Z,100755.36
2022-10-06T04:04:40.017Z,100768.66
2022-10-06T04:07:13.622Z,100768.16
2022-10-06T04:09:43.499Z,100764.11
2022-10-06T04:12:14.399Z,100772.05
2022-10-06T04:14:45.484Z,100774.31
2022-10-06T04:17:15.869Z,100778.34
2022-10-06T04:19:46.661Z,100780.50
2022-10-06T04:22:16.794Z,100781.58
2022-10-06T04:24:46.711Z,100780.70
2022-10-06T04:27:28.192Z,100782.95
2022-10-06T04:30:08.962Z,100782.28
2022-10-06T04:32:40.974Z,100785.05
2022-10-06T04:35:10.665Z,100786.52
2022-10-06T04:37:40.923Z,100797.69
2022-10-06T04:40:12.139Z,100793.30
2022-10-06T04:42:43.480Z,100798.39
2022-10-06T04:45:15.080Z,100802.41
2022-10-06T04:47:45.287Z,100808.34
2022-10-06T04:50:15.272Z,100809.86
2022-10-06T04:52:46.800Z,100814.77
2022-10-06T04:55:16.705Z,100814.77
2022-10-06T04:57:46.727Z,100821.69
2022-10-06T05:00:26.990Z,100824.48
2022-10-06T05:02:58.108Z,100829.84
2022-10-06T05:05:27.931Z,100838.02
2022-10-06T05:07:58.125Z,100838.02
2022-10-06T05:10:28.494Z,100841.93
2022-10-06T05:12:59.258Z,100845.11
2022-10-06T05:15:29.142Z,100848.09
2022-10-06T05:17:59.925Z,100849.91
2022-10-06T05:20:29.806Z,100849.91
2022-10-06T05:23:00.704Z,100853.09
2022-10-06T05:25:30.735Z,100863.22
2022-10-06T05:28:00.639Z,100865.98
2022-10-06T05:30:30.529Z,100861.55
2022-10-06T05:33:00.715Z,100862.41
2022-10-06T05:35:30.601Z,100866.13
2022-10-06T05:38:00.468Z,100868.75
2022-10-06T05:40:30.663Z,100866.25
2022-10-06T05:43:00.612Z,100861.63
2022-10-06T05:45:30.738Z,100872.26
2022-10-06T05:48:00.969Z,100870.27
2022-10-06T05:50:32.503Z,100882.23
2022-10-06T05:53:02.424Z,100875.69
2022-10-06T05:55:32.403Z,100887.59
2022-10-06T05:58:02.289Z,100896.75
2022-10-06T06:00:34.878Z,100905.51
2022-10-06T06:03:04.870Z,100919.45
2022-10-06T06:05:34.756Z,100919.45
2022-10-06T06:08:04.665Z,100916.14
2022-10-06T06:10:34.581Z,100921.63
2022-10-06T06:13:08.028Z,100921.48
2022-10-06T06:15:57.342Z,100927.89
2022-10-06T06:18:28.620Z,100930.34
2022-10-06T06:21:01.311Z,100940.59
2022-10-06T06:23:40.122Z,100935.19
2022-10-06T06:26:15.680Z,100941.84
2022-10-06T06:28:48.733Z,100945.48
2022-10-06T06:31:22.181Z,100947.41
2022-10-06T06:33:55.916Z,100950.92
2022-10-06T06:36:30.084Z,100961.22
2022-10-06T06:39:00.445Z,100961.22
2022-10-06T06:41:32.852Z,100966.64
2022-10-06T06:44:05.555Z,100968.70
2022-10-06T06:46:43.439Z,100968.70
2022-10-06T06:49:15.030Z,100969.06
2022-10-06T06:51:51.171Z,100968.05
2022-10-06T06:54:22.518Z,100968.52
2022-10-06T06:56:53.046Z,100972.68
2022-10-06T06:59:23.196Z,100977.28
2022-10-06T07:01:54.632Z,100978.67
2022-10-06T07:04:25.016Z,100985.58
2022-10-06T07:06:58.789Z,100989.94
2022-10-06T07:09:33.218Z,100993.86
2022-10-06T07:12:03.729Z,100997.62
2022-10-06T07:14:34.029Z,100994.09
2022-10-06T07:17:22.045Z,100995.27
2022-10-06T07:20:09.949Z,100996.26
2022-10-06T07:22:58.405Z,101003.45
2022-10-06T07:25:28.380Z,101004.41
2022-10-06T07:28:00.276Z,101007.09
2022-10-06T07:30:41.022Z,101015.53
2022-10-06T07:33:15.867Z,101016.19
2022-10-06T07:35:45.825Z,101013.09
2022-10-06T07:38:16.983Z,101017.56
2022-10-06T07:41:18.427Z,101019.87
2022-10-06T07:43:31.242Z,101018.66
2022-10-06T07:46:02.192Z,101022.83
2022-10-06T07:48:33.778Z,101020.91
2022-10-06T07:51:07.277Z,101026.95
2022-10-06T07:53:39.318Z,101038.92
2022-10-06T07:56:16.711Z,101039.84
2022-10-06T07:58:49.422Z,101030.41
2022-10-06T08:01:21.271Z,101046.69
2022-10-06T08:03:51.635Z,101054.63
2022-10-06T08:06:22.820Z,101050.89
2022-10-06T08:08:53.784Z,101055.62
2022-10-06T08:11:23.768Z,101060.81
2022-10-06T08:13:53.602Z,101066.11
2022-10-06T08:16:27.678Z,101070.48
2022-10-06T08:18:59.441Z,101072.18
2022-10-06T08:21:36.719Z,101085.25
2022-10-06T08:24:07.379Z,101089.95
2022-10-06T08:26:37.240Z,101088.63
2022-10-06T08:29:07.295Z,101088.37
2022-10-06T08:31:39.200Z,101093.89
2022-10-06T08:34:11.958Z,101098.62
2022-10-06T08:36:44.990Z,101102.75
2022-10-06T08:39:11.658Z,101105.94
2022-10-06T08:41:46.506Z,101115.16
2022-10-06T08:44:19.641Z,101114.74
2022-10-06T08:47:00.533Z,101116.14
2022-10-06T08:49:32.550Z,101123.94
2022-10-06T08:52:21.915Z,101129.94
2022-10-06T08:55:06.953Z,101129.94
2022-10-06T08:57:39.896Z,101133.48
2022-10-06T09:00:21.230Z,101142.41
2022-10-06T09:02:51.000Z,101147.89
2022-10-06T09:05:29.890Z,101146.40
2022-10-06T09:08:14.892Z,101148.92
2022-10-06T09:11:20.031Z,101153.50
2022-10-06T09:13:55.351Z,101150.87
2022-10-06T09:16:31.417Z,101163.43
2022-10-06T09:19:10.264Z,101168.27
2022-10-06T09:21:46.233Z,101165.27
2022-10-06T09:24:27.986Z,101168.80
2022-10-06T09:26:59.188Z,101175.63
2022-10-06T09:29:29.678Z,101176.27
2022-10-06T09:31:59.321Z,101174.21
2022-10-06T09:34:35.042Z,101181.20
2022-10-06T09:37:09.079Z,101195.64
2022-10-06T09:39:44.771Z,101194.30
2022-10-06T09:42:20.350Z,101201.11
2022-10-06T09:45:08.081Z,101213.10
2022-10-06T09:47:45.272Z,101216.53
2022-10-06T09:50:24.385Z,101218.32
2022-10-06T09:53:05.988Z,101230.19
2022-10-06T09:55:41.622Z,101235.22
2022-10-06T09:58:23.468Z,101234.11
2022-10-06T10:01:00.251Z,101246.63
2022-10-06T10:04:18.975Z,101249.77
2022-10-06T10:06:31.377Z,101260.71
2022-10-06T10:09:23.084Z,101260.71
2022-10-06T10:12:27.802Z,101274.83
2022-10-06T10:15:12.742Z,101275.75
2022-10-06T10:18:00.828Z,101284.74
2022-10-06T10:20:35.407Z,101292.53
2022-10-06T10:23:30.941Z,101292.53
2022-10-06T10:26:09.585Z,101295.58
2022-10-06T10:28:50.008Z,101296.80
2022-10-06T10:31:31.840Z,101295.73
2022-10-06T10:34:24.501Z,101302.41
2022-10-06T10:37:08.751Z,101301.09
2022-10-06T10:39:50.156Z,101309.29
2022-10-06T10:42:30.541Z,101314.06
2022-10-06T10:45:06.026Z,101325.37
2022-10-06T10:47:45.519Z,101319.27
2022-10-06T10:50:30.175Z,101325.98
2022-10-06T10:53:11.786Z,101328.00
2022-10-06T10:55:51.397Z,101327.22
2022-10-06T10:58:36.660Z,101332.61
2022-10-06T11:01:29.588Z,101340.27
2022-10-06T11:04:00.903Z,101342.03
2022-10-06T11:06:33.767Z,101342.93
2022-10-06T11:09:18.951Z,101346.30
2022-10-06T11:11:54.330Z,101336.80
2022-10-06T11:14:32.314Z,101344.88
2022-10-06T11:17:32.041Z,101350.47
2022-10-06T11:20:10.641Z,101339.50
2022-10-06T11:22:52.666Z,101339.50
2022-10-06T11:25:43.624Z,101336.86
2022-10-06T11:28:20.171Z,101361.97
2022-10-06T11:31:12.728Z,101361.04
2022-10-06T11:33:54.737Z,101354.67
2022-10-06T11:36:35.900Z,101362.63
2022-10-06T11:39:21.586Z,101356.52
2022-10-06T11:41:54.419Z,101356.00
2022-10-06T11:44:37.085Z,101356.00
2022-10-06T11:47:13.194Z,101368.66
2022-10-06T11:49:55.934Z,101366.28
2022-10-06T11:52:28.766Z,101361.30
2022-10-06T11:55:10.557Z,101369.13
2022-10-06T11:57:55.099Z,101362.77
2022-10-06T12:00:36.827Z,101360.17
2022-10-06T12:03:31.936Z,101359.09
2022-10-06T12:06:03.261Z,101370.14
2022-10-06T12:08:41.801Z,101376.45
2022-10-06T12:11:39.464Z,101372.19
2022-10-06T12:17:19.590Z,101375.16
2022-10-06T12:19:43.423Z,101372.13
2022-10-06T12:22:17.231Z,101377.56
2022-10-06T12:25:05.277Z,101386.94
2022-10-06T12:27:59.238Z,101383.78
2022-10-06T12:31:05.675Z,101397.99
2022-10-06T12:33:41.674Z,101399.47
2022-10-06T12:36:26.391Z,101399.36
2022-10-06T12:39:18.603Z,101406.66
2022-10-06T12:42:09.598Z,101410.22
2022-10-06T12:44:42.569Z,101409.25
2022-10-06T12:47:21.015Z,101407.19
2022-10-06T12:49:59.703Z,101410.23
2022-10-06T12:52:54.996Z,101419.09
2022-10-06T12:55:33.298Z,101411.03
2022-10-06T12:58:03.175Z,101411.34
2022-10-06T13:00:36.039Z,101411.86
2022-10-06T13:03:09.863Z,101413.92
2022-10-06T13:05:40.026Z,101408.23
2022-10-06T13:08:25.252Z,101407.51
2022-10-06T13:11:14.583Z,101411.34
2022-10-06T13:13:50.086Z,101411.98
2022-10-06T13:16:31.865Z,101416.26
2022-10-06T13:19:02.329Z,101415.36
2022-10-06T13:21:32.063Z,101412.36
2022-10-06T13:24:02.015Z,101412.06
2022-10-06T13:26:33.943Z,101412.75
2022-10-06T13:29:05.242Z,101412.09
2022-10-06T13:31:37.846Z,101412.80
2022-10-06T13:34:16.014Z,101416.98
2022-10-06T13:36:52.282Z,101416.68
2022-10-06T13:39:27.370Z,101414.01
2022-10-06T13:42:00.473Z,101415.56
2022-10-06T13:44:36.009Z,101416.34
2022-10-06T13:47:09.914Z,101418.07
2022-10-06T13:49:49.060Z,101425.02
2022-10-06T13:52:21.893Z,101418.20
2022-10-06T13:54:54.949Z,101411.92
2022-10-06T13:57:39.123Z,101411.92
2022-10-06T14:00:14.504Z,101425.19
2022-10-06T14:02:50.615Z,101423.19
2022-10-06T14:05:38.577Z,101423.63
2022-10-06T14:08:14.555Z,101430.67
2022-10-06T14:10:58.962Z,101433.88
2022-10-06T14:13:48.474Z,101424.67
2022-10-06T14:16:26.884Z,101422.95
2022-10-06T14:19:01.862Z,101431.01
2022-10-06T14:21:39.842Z,101432.06
2022-10-06T14:24:21.415Z,101440.95
2022-10-06T14:26:52.210Z,101440.95
2022-10-06T14:29:25.888Z,101442.12
2022-10-06T14:31:55.773Z,101444.03
2022-10-06T14:34:25.535Z,101442.50
2022-10-06T14:36:55.445Z,101452.73
2022-10-06T14:39:25.124Z,101443.96
2022-10-06T14:41:54.920Z,101449.60
2022-10-06T14:44:24.909Z,101451.42
2022-10-06T14:46:54.623Z,101453.60
2022-10-06T14:49:25.949Z,101458.47
2022-10-06T14:51:56.512Z,101459.61
2022-10-06T14:54:28.625Z,101457.99
2022-10-06T14:56:58.490Z,101461.44
2022-10-06T14:59:28.781Z,101461.06
2022-10-06T15:01:58.685Z,101458.28
2022-10-06T15:04:28.573Z,101459.49
2022-10-06T15:07:16.672Z,101453.66
2022-10-06T15:09:46.830Z,101457.19
2022-10-06T15:12:17.789Z,101441.32
2022-10-06T15:14:46.719Z,101441.32
2022-10-06T15:17:16.728Z,101459.05
2022-10-06T15:19:46.554Z,101456.63
2022-10-06T15:22:16.103Z,101457.48
2022-10-06T15:24:48.448Z,101458.91
2022-10-06T15:27:36.443Z,101464.15
2022-10-06T15:30:07.402Z,101466.47
2022-10-06T15:32:38.113Z,101465.45
2022-10-06T15:35:08.288Z,101465.61
2022-10-06T15:37:41.288Z,101467.98
2022-10-06T15:40:11.335Z,101471.70
2022-10-06T15:42:41.138Z,101476.67
2022-10-06T15:45:11.501Z,101479.18
2022-10-06T15:47:41.745Z,101483.14
2022-10-06T15:50:16.463Z,101485.78
2022-10-06T15:52:43.257Z,101484.16
2022-10-06T15:55:13.202Z,101479.39
2022-10-06T15:57:42.771Z,101492.50
2022-10-06T16:00:13.864Z,101489.19
2022-10-06T16:02:45.001Z,101483.23
2022-10-06T16:05:16.643Z,101495.27
2022-10-06T16:07:46.545Z,101491.51
2022-10-06T16:10:16.136Z,101491.51
2022-10-06T16:12:45.956Z,101489.97
2022-10-06T16:15:16.597Z,101499.76
2022-10-06T16:17:46.392Z,101497.23
2022-10-06T16:20:16.675Z,101503.52
2022-10-06T16:22:46.297Z,101512.66
2022-10-06T16:25:16.217Z,101517.36
2022-10-06T16:27:46.015Z,101519.65
2022-10-06T16:30:17.423Z,101521.33
2022-10-06T16:32:46.977Z,101519.72
2022-10-06T16:35:18.517Z,101523.25
2022-10-06T16:37:49.957Z,101520.36
2022-10-06T16:40:21.464Z,101531.47
2022-10-06T16:42:53.159Z,101528.70
2022-10-06T16:45:25.304Z,101531.63
2022-10-06T16:47:55.148Z,101539.05
2022-10-06T16:50:25.893Z,101539.20
2022-10-06T16:52:56.077Z,101545.74
2022-10-06T16:55:26.844Z,101541.36
2022-10-06T16:57:56.893Z,101541.98
2022-10-06T17:00:27.026Z,101546.94
2022-10-06T17:02:56.969Z,101557.41
2022-10-06T17:05:27.188Z,101562.97
2022-10-06T17:07:59.218Z,101563.86
2022-10-06T17:10:28.641Z,101565.29
2022-10-06T17:12:58.465Z,101571.84
2022-10-06T17:15:32.732Z,101571.05
2022-10-06T17:18:01.499Z,101571.05
2022-10-06T17:20:31.456Z,101572.03
2022-10-06T17:23:01.315Z,101572.28
2022-10-06T17:25:31.316Z,101577.03
2022-10-06T17:28:02.264Z,101582.41
2022-10-06T17:30:31.131Z,101588.33
2022-10-06T17:33:00.632Z,101591.62
2022-10-06T17:35:31.244Z,101593.01
2022-10-06T17:38:02.652Z,101590.99
2022-10-06T17:40:32.570Z,101587.28
2022-10-06T17:43:02.452Z,101587.28
2022-10-06T17:45:32.474Z,101591.38
2022-10-06T17:48:02.712Z,101588.18
2022-10-06T17:50:32.338Z,101591.99
2022-10-06T17:53:02.175Z,101591.69
2022-10-06T17:55:32.032Z,101589.97
2022-10-06T17:58:01.985Z,101592.52
2022-10-06T18:03:56.161Z,101595.23
2022-10-06T18:06:28.793Z,101595.08
2022-10-06T18:09:02.393Z,101604.33
2022-10-06T18:11:33.932Z,101604.33
2022-10-06T18:14:14.737Z,101612.48
2022-10-06T18:24:08.719Z,101588.54
2022-10-06T18:26:40.341Z,101611.64
2022-10-06T18:29:11.462Z,101611.64
2022-10-06T18:31:40.371Z,101616.75
2022-10-06T18:36:44.983Z,101624.98
2022-10-06T18:39:15.154Z,101618.73
2022-10-06T18:41:47.702Z,101621.30
2022-10-06T18:44:22.435Z,101620.91
2022-10-06T18:47:10.349Z,101627.13
2022-10-06T18:49:45.573Z,101623.30
2022-10-06T18:52:24.349Z,101624.45
2022-10-06T18:54:57.096Z,101633.30
2022-10-06T18:57:28.032Z,101636.68
2022-10-06T18:59:58.118Z,101636.17
2022-10-06T19:02:28.025Z,101634.06
2022-10-06T19:04:58.835Z,101638.48
2022-10-06T19:07:30.733Z,101641.24
2022-10-06T19:10:02.889Z,101645.88
2022-10-06T19:12:33.042Z,101642.75
2022-10-06T19:15:03.313Z,101642.77
2022-10-06T19:17:33.124Z,101643.89
2022-10-06T19:20:03.068Z,101643.89
2022-10-06T19:22:33.628Z,101644.88
2022-10-06T19:25:03.327Z,101650.42
2022-10-06T19:27:33.910Z,101652.97
2022-10-06T19:30:03.817Z,101650.27
2022-10-06T19:32:34.307Z,101657.73
2022-10-06T19:35:10.166Z,101659.67
2022-10-06T19:37:36.985Z,101661.36
2022-10-06T19:40:08.963Z,101668.75
2022-10-06T19:42:48.138Z,101667.83
2022-10-06T19:45:20.578Z,101665.98
2022-10-06T19:47:51.386Z,101666.43
2022-10-06T19:50:21.400Z,101671.91
2022-10-06T19:52:52.611Z,101670.65
2022-10-06T19:55:22.845Z,101669.33
2022-10-06T19:57:52.500Z,101675.92
2022-10-06T20:00:22.101Z,101681.73
2022-10-06T20:02:51.896Z,101678.64
2022-10-06T20:05:21.721Z,101675.92
2022-10-06T20:07:52.218Z,101680.80
2022-10-06T20:10:22.047Z,101681.60
2022-10-06T20:12:51.855Z,101681.12
2022-10-06T20:15:22.630Z,101680.60
2022-10-06T20:17:52.467Z,101680.73
2022-10-06T20:20:22.011Z,101685.63
2022-10-06T20:22:54.130Z,101679.83
2022-10-06T20:25:23.646Z,101686.27
2022-10-06T20:27:53.548Z,101686.44
2022-10-06T20:30:23.442Z,101689.14
2022-10-06T20:32:53.586Z,101691.13
2022-10-06T20:35:23.119Z,101687.34
2022-10-06T20:37:53.264Z,101689.46
2022-10-06T20:40:42.578Z,101690.04
2022-10-06T20:43:12.432Z,101693.25
2022-10-06T20:45:42.266Z,101691.59
2022-10-06T20:48:13.427Z,101698.21
2022-10-06T20:50:43.466Z,101693.86
2022-10-06T20:53:14.773Z,101697.47
2022-10-06T20:55:47.410Z,101698.38
2022-10-06T20:58:17.254Z,101699.18
2022-10-06T21:00:47.118Z,101695.28
2022-10-06T21:03:17.453Z,101700.23
2022-10-06T21:05:51.663Z,101700.23
2022-10-06T21:08:21.191Z,101696.33
2022-10-06T21:11:01.103Z,101697.92
2022-10-06T21:13:32.343Z,101698.52
2022-10-06T21:16:02.769Z,101703.20
2022-10-06T21:18:33.820Z,101703.20
2022-10-06T21:21:07.672Z,101705.64
2022-10-06T21:23:40.516Z,101704.89
2022-10-06T21:26:13.711Z,101708.57
2022-10-06T21:28:43.772Z,101710.45
2022-10-06T21:31:16.723Z,101708.73
2022-10-06T21:33:48.753Z,101709.39
2022-10-06T21:36:21.024Z,101701.25
2022-10-06T21:38:52.987Z,101701.09
2022-10-06T21:41:32.785Z,101709.44
2022-10-06T21:44:13.775Z,101711.81
2022-10-06T21:46:50.041Z,101703.61
2022-10-06T21:49:21.626Z,101710.88
2022-10-06T21:51:53.867Z,101710.48
2022-10-06T21:54:24.416Z,101709.77
2022-10-06T21:56:53.271Z,101712.99
2022-10-06T21:59:22.780Z,101706.61
2022-10-06T22:01:52.949Z,101708.07
2022-10-06T22:04:22.820Z,101711.94
2022-10-06T22:06:52.706Z,101711.94
2022-10-06T22:09:22.762Z,101717.33
2022-10-06T22:11:52.572Z,101713.88
2022-10-06T22:14:22.309Z,101712.52
2022-10-06T22:16:52.188Z,101712.52
2022-10-06T22:19:21.841Z,101712.34
2022-10-06T22:21:52.006Z,101715.52
2022-10-06T22:24:22.569Z,101713.20
2022-10-06T22:26:52.398Z,101715.42
2022-10-06T22:29:22.853Z,101715.97
2022-10-06T22:31:52.507Z,101718.05
2022-10-06T22:34:22.256Z,101716.64
2022-10-06T22:36:52.430Z,101712.06
2022-10-06T22:39:22.263Z,101712.19
2022-10-06T22:41:52.074Z,101708.66
2022-10-06T22:44:21.607Z,101712.69
2022-10-06T22:46:51.524Z,101709.33
2022-10-06T22:49:21.407Z,101707.97
2022-10-06T22:51:51.215Z,101707.61
2022-10-06T22:54:22.401Z,101705.03
2022-10-06T22:56:52.687Z,101702.66
2022-10-06T22:59:22.514Z,101697.00
2022-10-06T23:01:54.441Z,101697.00
2022-10-06T23:04:24.022Z,101698.69
2022-10-06T23:06:53.830Z,101698.69
2022-10-06T23:09:23.360Z,101690.16
2022-10-06T23:11:53.187Z,101689.23
2022-10-06T23:14:23.153Z,101695.36
2022-10-06T23:16:53.108Z,101701.06
2022-10-06T23:19:23.068Z,101705.05
2022-10-06T23:21:52.916Z,101702.26
2022-10-06T23:24:22.510Z,101703.28
2022-10-06T23:26:52.327Z,101703.28
2022-10-06T23:29:22.013Z,101702.55
2022-10-06T23:31:52.212Z,101704.80
2022-10-06T23:34:21.727Z,101703.45
2022-10-06T23:36:51.545Z,101702.26
2022-10-06T23:39:21.367Z,101700.70
2022-10-06T23:41:51.197Z,101700.45
2022-10-06T23:44:20.873Z,101699.30
2022-10-06T23:46:50.805Z,101696.47
2022-10-06T23:49:20.896Z,101699.66
2022-10-06T23:51:51.099Z,101692.31
2022-10-06T23:54:20.969Z,101693.70
2022-10-06T23:56:52.423Z,101698.95
2022-10-06T23:59:21.418Z,101702.88
